createdAt,value
2024-05-09T00:00:45.203Z,4.70
2024-05-09T00:03:33.274Z,4.60
2024-05-09T00:06:01.168Z,4.00
2024-05-09T00:08:29.200Z,4.60
2024-05-09T00:10:57.294Z,4.70
2024-05-09T00:13:27.806Z,4.40
2024-05-09T00:15:55.494Z,4.60
2024-05-09T00:18:23.532Z,5.40
2024-05-09T00:20:51.565Z,5.10
2024-05-09T00:23:19.812Z,5.10
2024-05-09T00:25:49.940Z,5.10
2024-05-09T00:28:17.691Z,6.10
2024-05-09T00:30:45.412Z,7.40
2024-05-09T00:33:13.407Z,6.70
2024-05-09T00:35:41.684Z,6.80
2024-05-09T00:38:10.390Z,7.30
2024-05-09T00:40:43.424Z,8.40
2024-05-09T00:43:13.409Z,6.90
2024-05-09T00:45:43.151Z,6.40
2024-05-09T00:48:14.956Z,7.00
2024-05-09T00:50:45.494Z,6.40
2024-05-09T00:53:14.942Z,6.50
2024-05-09T00:55:43.406Z,6.80
2024-05-09T00:58:14.575Z,7.40
2024-05-09T01:00:42.951Z,5.90
2024-05-09T01:03:13.026Z,5.10
2024-05-09T01:05:43.424Z,4.70
2024-05-09T01:08:11.808Z,3.50
2024-05-09T01:10:42.873Z,3.00
2024-05-09T01:13:12.913Z,3.50
2024-05-09T01:15:40.825Z,2.90
2024-05-09T01:19:25.598Z,2.90
2024-05-09T01:21:53.862Z,3.10
2024-05-09T01:24:22.763Z,2.30
2024-05-09T01:26:51.706Z,2.90
2024-05-09T01:29:20.443Z,2.60
2024-05-09T01:31:49.001Z,2.80
2024-05-09T01:34:17.060Z,2.20
2024-05-09T01:37:20.247Z,2.40
2024-05-09T01:39:49.156Z,2.50
2024-05-09T01:42:17.395Z,2.30
2024-05-09T01:44:46.758Z,2.30
2024-05-09T01:47:14.526Z,2.60
2024-05-09T01:49:42.965Z,2.90
2024-05-09T01:52:11.214Z,2.40
2024-05-09T01:54:39.819Z,2.90
2024-05-09T01:57:07.494Z,3.00
2024-05-09T01:59:36.092Z,3.00
2024-05-09T02:02:04.764Z,3.00
2024-05-09T02:04:34.114Z,3.20
2024-05-09T02:07:02.830Z,2.60
2024-05-09T02:09:31.840Z,2.80
2024-05-09T02:11:59.650Z,3.40
2024-05-09T02:14:27.473Z,3.10
2024-05-09T02:16:55.809Z,2.90
2024-05-09T02:19:24.024Z,2.90
2024-05-09T02:21:52.015Z,2.90
2024-05-09T02:24:20.673Z,3.10
2024-05-09T02:26:49.602Z,2.90
2024-05-09T02:29:17.643Z,3.60
2024-05-09T02:31:46.228Z,2.90
2024-05-09T02:34:14.591Z,3.50
2024-05-09T02:36:42.723Z,3.00
2024-05-09T02:39:10.876Z,3.10
2024-05-09T02:41:38.949Z,3.80
2024-05-09T02:44:07.302Z,3.20
2024-05-09T02:46:36.145Z,2.90
2024-05-09T02:49:04.079Z,3.30
2024-05-09T02:51:32.377Z,3.20
2024-05-09T02:54:00.129Z,2.90
2024-05-09T02:56:27.890Z,3.00
2024-05-09T02:58:56.584Z,2.50
2024-05-09T03:01:24.325Z,3.10
2024-05-09T03:03:52.967Z,2.80
2024-05-09T03:06:22.572Z,2.90
2024-05-09T03:08:50.706Z,3.00
2024-05-09T03:11:23.144Z,2.80
2024-05-09T03:13:53.000Z,2.80
2024-05-09T03:16:21.816Z,3.00
2024-05-09T03:18:49.639Z,3.10
2024-05-09T03:21:17.785Z,3.10
2024-05-09T03:23:45.895Z,3.20
2024-05-09T03:26:19.348Z,3.00
2024-05-09T03:28:47.941Z,3.10
2024-05-09T03:31:18.213Z,2.90
2024-05-09T03:33:46.944Z,3.10
2024-05-09T03:36:15.241Z,3.70
2024-05-09T03:38:43.552Z,3.00
2024-05-09T03:41:12.740Z,3.40
2024-05-09T03:43:41.083Z,2.90
2024-05-09T03:46:08.724Z,3.40
2024-05-09T03:48:37.217Z,3.30
2024-05-09T03:51:07.366Z,3.60
2024-05-09T03:53:36.363Z,3.50
2024-05-09T03:56:07.931Z,3.40
2024-05-09T03:58:35.648Z,3.50
2024-05-09T04:01:05.347Z,3.40
2024-05-09T04:03:35.125Z,3.70
2024-05-09T04:06:04.027Z,4.50
2024-05-09T04:08:31.956Z,4.30
2024-05-09T04:11:00.796Z,4.30
2024-05-09T04:13:28.834Z,4.50
2024-05-09T04:15:56.835Z,4.40
2024-05-09T04:18:25.534Z,4.60
2024-05-09T04:20:54.324Z,4.30
2024-05-09T04:23:22.731Z,5.00
2024-05-09T04:25:51.011Z,4.70
2024-05-09T04:28:20.267Z,4.30
2024-05-09T04:30:48.659Z,4.80
2024-05-09T04:33:19.184Z,4.80
2024-05-09T04:35:49.301Z,5.40
2024-05-09T04:38:19.122Z,6.60
2024-05-09T04:40:48.076Z,5.10
2024-05-09T04:43:19.985Z,4.50
2024-05-09T04:45:49.931Z,5.30
2024-05-09T04:48:20.380Z,5.20
2024-05-09T04:50:48.942Z,6.00
2024-05-09T04:53:17.928Z,5.40
2024-05-09T04:55:46.264Z,5.20
2024-05-09T04:58:14.498Z,6.00
2024-05-09T05:00:43.961Z,5.70
2024-05-09T05:03:16.135Z,5.00
2024-05-09T05:05:46.888Z,5.40
2024-05-09T05:08:17.534Z,5.00
2024-05-09T05:10:48.639Z,5.10
2024-05-09T05:13:25.559Z,4.70
2024-05-09T05:15:58.044Z,4.30
2024-05-09T05:18:28.233Z,5.10
2024-05-09T05:20:57.056Z,5.50
2024-05-09T05:23:26.025Z,4.60
2024-05-09T05:25:55.893Z,4.50
2024-05-09T05:28:29.554Z,4.90
2024-05-09T05:31:00.402Z,4.70
2024-05-09T05:33:30.737Z,5.10
2024-05-09T05:35:59.007Z,4.10
2024-05-09T05:38:28.385Z,4.80
2024-05-09T05:40:56.815Z,4.30
2024-05-09T05:43:25.409Z,4.90
2024-05-09T05:45:53.979Z,5.20
2024-05-09T05:48:22.949Z,4.60
2024-05-09T05:50:51.679Z,5.40
2024-05-09T05:53:20.193Z,4.30
2024-05-09T05:55:48.315Z,4.70
2024-05-09T05:58:16.493Z,4.60
2024-05-09T06:00:46.269Z,5.00
2024-05-09T06:03:15.022Z,4.50
2024-05-09T06:05:45.562Z,4.70
2024-05-09T06:08:14.112Z,4.10
2024-05-09T06:10:42.843Z,5.20
2024-05-09T06:13:13.737Z,4.50
2024-05-09T06:15:43.634Z,4.60
2024-05-09T06:18:14.395Z,5.40
2024-05-09T06:20:43.938Z,4.60
2024-05-09T06:23:14.386Z,4.30
2024-05-09T06:25:43.749Z,4.30
2024-05-09T06:28:11.657Z,4.50
2024-05-09T06:30:42.003Z,4.90
2024-05-09T06:33:13.934Z,4.60
2024-05-09T06:35:45.864Z,5.10
2024-05-09T06:38:14.398Z,4.50
2024-05-09T06:40:44.002Z,4.70
2024-05-09T06:43:14.722Z,4.00
2024-05-09T06:45:43.950Z,4.90
2024-05-09T06:48:12.235Z,4.10
2024-05-09T06:50:41.089Z,4.90
2024-05-09T06:53:09.674Z,3.90
2024-05-09T06:55:38.417Z,4.00
2024-05-09T06:58:09.519Z,3.10
2024-05-09T07:00:40.547Z,3.80
2024-05-09T07:03:12.475Z,3.90
2024-05-09T07:08:11.317Z,4.00
2024-05-09T07:10:39.166Z,3.90
2024-05-09T07:13:10.866Z,3.60
2024-05-09T07:15:40.232Z,4.70
2024-05-09T07:18:13.234Z,4.90
2024-05-09T07:20:42.449Z,3.70
2024-05-09T07:23:11.510Z,4.00
2024-05-09T07:25:40.127Z,4.20
2024-05-09T07:28:16.731Z,4.10
2024-05-09T07:30:45.547Z,3.70
2024-05-09T07:33:22.778Z,4.80
2024-05-09T07:35:52.561Z,4.90
2024-05-09T07:38:21.095Z,3.70
2024-05-09T07:40:49.625Z,2.40
2024-05-09T07:43:17.872Z,2.10
2024-05-09T07:45:52.679Z,2.70
2024-05-09T07:52:38.423Z,2.70
2024-05-09T07:53:47.699Z,2.10
2024-05-09T07:56:22.696Z,1.90
2024-05-09T07:58:53.781Z,2.00
2024-05-09T08:01:24.440Z,2.40
2024-05-09T08:03:53.265Z,2.90
2024-05-09T08:06:21.313Z,2.70
2024-05-09T08:08:50.579Z,2.50
2024-05-09T08:11:20.182Z,2.30
2024-05-09T08:13:48.674Z,2.80
2024-05-09T08:16:18.782Z,2.30
2024-05-09T08:18:47.923Z,2.90
2024-05-09T08:21:16.132Z,2.30
2024-05-09T08:23:44.144Z,2.70
2024-05-09T08:26:12.709Z,2.20
2024-05-09T08:28:43.651Z,2.70
2024-05-09T08:31:11.765Z,2.50
2024-05-09T08:33:47.366Z,2.50
2024-05-09T08:36:15.962Z,2.70
2024-05-09T08:38:44.146Z,2.50
2024-05-09T08:41:14.181Z,2.60
2024-05-09T08:43:43.360Z,2.30
2024-05-09T08:46:13.803Z,2.40
2024-05-09T08:48:43.838Z,2.50
2024-05-09T08:51:13.832Z,2.50
2024-05-09T08:53:41.492Z,2.10
2024-05-09T08:56:11.476Z,2.60
2024-05-09T08:58:40.515Z,2.50
2024-05-09T09:01:08.929Z,2.40
2024-05-09T09:03:38.240Z,2.20
2024-05-09T09:06:08.833Z,1.90
2024-05-09T09:08:41.177Z,2.60
2024-05-09T09:11:10.676Z,2.20
2024-05-09T09:13:40.169Z,2.40
2024-05-09T09:16:08.299Z,2.80
2024-05-09T09:18:37.056Z,2.30
2024-05-09T09:21:10.405Z,2.50
2024-05-09T09:23:41.592Z,2.40
2024-05-09T09:26:16.178Z,2.30
2024-05-09T09:28:46.821Z,3.00
2024-05-09T09:31:20.761Z,2.70
2024-05-09T09:33:49.136Z,2.20
2024-05-09T09:36:18.209Z,2.90
2024-05-09T09:38:47.130Z,2.30
2024-05-09T09:41:17.409Z,2.40
2024-05-09T09:43:45.543Z,2.30
2024-05-09T09:46:14.568Z,2.60
2024-05-09T09:48:44.256Z,2.50
2024-05-09T09:51:15.162Z,2.50
2024-05-09T09:53:43.951Z,2.70
2024-05-09T09:56:13.204Z,2.50
2024-05-09T09:58:42.283Z,2.70
2024-05-09T10:01:10.765Z,2.60
2024-05-09T10:03:39.135Z,2.40
2024-05-09T10:06:08.855Z,2.30
2024-05-09T10:08:37.519Z,2.10
2024-05-09T10:11:06.692Z,2.80
2024-05-09T10:13:35.280Z,2.00
2024-05-09T10:16:11.203Z,2.30
2024-05-09T10:18:41.064Z,2.40
2024-05-09T10:21:17.294Z,2.40
2024-05-09T10:24:08.433Z,2.50
2024-05-09T10:26:37.207Z,2.30
2024-05-09T10:29:18.681Z,2.20
2024-05-09T10:31:47.881Z,2.40
2024-05-09T10:34:20.868Z,2.00
2024-05-09T10:36:54.195Z,2.90
2024-05-09T10:39:25.421Z,2.30
2024-05-09T10:41:53.221Z,2.30
2024-05-09T10:44:21.667Z,2.10
2024-05-09T10:46:51.130Z,2.20
2024-05-09T10:49:19.221Z,1.90
2024-05-09T10:51:48.760Z,3.00
2024-05-09T10:54:17.152Z,2.30
2024-05-09T10:56:44.741Z,2.40
2024-05-09T10:59:12.890Z,2.20
2024-05-09T11:01:41.690Z,2.40
2024-05-09T11:04:10.159Z,2.40
2024-05-09T11:06:39.034Z,2.10
2024-05-09T11:09:07.729Z,2.50
2024-05-09T11:11:36.704Z,2.00
2024-05-09T11:14:12.819Z,2.10
2024-05-09T11:16:41.095Z,2.20
2024-05-09T11:19:14.312Z,2.50
2024-05-09T11:21:43.274Z,2.40
2024-05-09T11:24:11.897Z,1.90
2024-05-09T11:26:40.534Z,2.40
2024-05-09T11:29:08.525Z,2.50
2024-05-09T11:31:48.730Z,2.20
2024-05-09T11:34:16.929Z,2.30
2024-05-09T11:36:45.788Z,1.60
2024-05-09T11:39:15.147Z,2.30
2024-05-09T11:41:42.901Z,1.90
2024-05-09T11:44:11.297Z,2.20
2024-05-09T11:46:39.646Z,1.90
2024-05-09T11:49:09.324Z,2.20
2024-05-09T11:51:45.418Z,2.10
2024-05-09T11:54:15.549Z,2.50
2024-05-09T11:56:44.273Z,2.40
2024-05-09T11:59:11.984Z,2.30
2024-05-09T12:01:40.137Z,2.10
2024-05-09T12:04:08.873Z,2.70
2024-05-09T12:06:37.228Z,1.80
2024-05-09T12:09:05.230Z,2.20
2024-05-09T12:11:33.291Z,2.40
2024-05-09T12:14:01.527Z,2.10
2024-05-09T12:16:30.207Z,2.30
2024-05-09T12:18:58.884Z,1.90
2024-05-09T12:21:27.475Z,2.40
2024-05-09T12:23:56.723Z,2.50
2024-05-09T12:26:24.455Z,2.20
2024-05-09T12:28:52.718Z,2.20
2024-05-09T12:31:20.518Z,2.00
2024-05-09T12:33:49.236Z,2.40
2024-05-09T12:36:17.307Z,2.00
2024-05-09T12:38:46.084Z,2.20
2024-05-09T12:41:14.301Z,2.70
2024-05-09T12:43:45.600Z,2.50
2024-05-09T12:46:13.746Z,2.30
2024-05-09T12:48:42.037Z,2.10
2024-05-09T12:51:12.490Z,2.00
2024-05-09T12:53:41.356Z,2.10
2024-05-09T12:56:11.711Z,2.60
2024-05-09T12:58:39.710Z,2.50
2024-05-09T13:01:09.504Z,2.40
2024-05-09T13:03:38.790Z,2.20
2024-05-09T13:06:07.207Z,2.80
2024-05-09T13:08:36.103Z,2.20
2024-05-09T13:11:04.855Z,2.00
2024-05-09T13:13:33.048Z,2.30
2024-05-09T13:16:01.576Z,2.70
2024-05-09T13:18:29.943Z,1.90
2024-05-09T13:20:58.361Z,2.00
2024-05-09T13:23:27.014Z,1.80
2024-05-09T13:25:55.595Z,2.00
2024-05-09T13:28:24.141Z,1.70
2024-05-09T13:30:52.608Z,1.80
2024-05-09T13:33:20.553Z,1.60
2024-05-09T13:35:50.901Z,1.80
2024-05-09T13:38:20.511Z,1.60
2024-05-09T13:40:50.342Z,1.60
2024-05-09T13:43:21.518Z,1.50
2024-05-09T13:45:50.321Z,1.70
2024-05-09T13:48:19.579Z,1.70
2024-05-09T13:50:47.869Z,1.90
2024-05-09T13:53:16.513Z,2.10
2024-05-09T13:55:44.497Z,1.90
2024-05-09T13:58:15.867Z,2.10
2024-05-09T14:00:48.070Z,2.10
2024-05-09T14:03:20.830Z,1.90
2024-05-09T14:05:51.564Z,1.80
2024-05-09T14:08:21.630Z,2.00
2024-05-09T14:10:50.749Z,2.10
2024-05-09T14:13:19.782Z,2.00
2024-05-09T14:15:47.798Z,2.20
2024-05-09T14:18:16.282Z,2.10
2024-05-09T14:20:44.628Z,1.50
2024-05-09T14:23:12.679Z,1.70
2024-05-09T14:25:43.596Z,1.90
2024-05-09T14:28:15.387Z,4.60
2024-05-09T14:30:44.538Z,1.70
2024-05-09T14:33:12.720Z,1.30
2024-05-09T14:35:42.864Z,1.20
2024-05-09T14:38:10.848Z,1.40
2024-05-09T14:40:43.065Z,1.20
2024-05-09T14:43:14.583Z,1.40
2024-05-09T14:45:46.657Z,1.40
2024-05-09T14:48:16.410Z,1.60
2024-05-09T14:50:44.499Z,1.90
2024-05-09T14:53:13.797Z,1.60
2024-05-09T14:55:43.476Z,1.50
2024-05-09T14:58:12.913Z,1.90
2024-05-09T15:00:51.156Z,1.80
2024-05-09T15:03:26.538Z,1.70
2024-05-09T15:05:55.545Z,1.50
2024-05-09T15:08:26.844Z,1.70
2024-05-09T15:10:57.696Z,1.80
2024-05-09T15:13:25.636Z,1.80
2024-05-09T15:15:53.805Z,1.60
2024-05-09T15:18:22.600Z,2.00
2024-05-09T15:20:50.761Z,1.50
2024-05-09T15:23:19.898Z,1.70
2024-05-09T15:25:48.913Z,2.10
2024-05-09T15:28:17.765Z,1.80
2024-05-09T15:30:47.847Z,1.50
2024-05-09T15:33:15.852Z,1.90
2024-05-09T15:35:46.471Z,1.70
2024-05-09T15:38:15.516Z,1.60
2024-05-09T15:40:44.827Z,1.50
2024-05-09T15:43:13.708Z,1.90
2024-05-09T15:45:42.225Z,1.70
2024-05-09T15:48:11.384Z,1.50
2024-05-09T15:50:41.820Z,1.30
2024-05-09T15:53:13.059Z,1.70
2024-05-09T15:55:43.111Z,1.90
2024-05-09T15:58:12.912Z,2.10
2024-05-09T16:00:44.783Z,1.80
2024-05-09T16:03:14.997Z,2.10
2024-05-09T16:05:48.194Z,1.70
2024-05-09T16:08:17.231Z,1.70
2024-05-09T16:10:47.100Z,1.60
2024-05-09T16:13:16.481Z,1.60
2024-05-09T16:15:46.270Z,1.80
2024-05-09T16:18:15.029Z,1.40
2024-05-09T16:20:44.931Z,1.50
2024-05-09T16:23:14.467Z,2.10
2024-05-09T16:25:45.837Z,1.80
2024-05-09T16:28:14.896Z,1.40
2024-05-09T16:30:42.837Z,1.50
2024-05-09T16:33:12.414Z,1.80
2024-05-09T16:35:40.971Z,1.40
2024-05-09T16:38:10.075Z,1.80
2024-05-09T16:40:40.544Z,1.50
2024-05-09T16:43:11.912Z,1.50
2024-05-09T16:45:46.135Z,1.60
2024-05-09T16:48:14.823Z,2.10
2024-05-09T16:50:42.789Z,1.40
2024-05-09T16:53:10.464Z,1.50
2024-05-09T16:55:38.385Z,1.50
2024-05-09T16:58:07.983Z,1.20
2024-05-09T17:00:42.099Z,1.30
2024-05-09T17:03:14.814Z,1.80
2024-05-09T17:05:50.800Z,1.70
2024-05-09T17:08:21.109Z,1.10
2024-05-09T17:10:49.964Z,1.60
2024-05-09T17:13:19.354Z,1.60
2024-05-09T17:15:49.353Z,1.70
2024-05-09T17:18:17.366Z,1.60
2024-05-09T17:20:45.231Z,1.40
2024-05-09T17:23:14.378Z,1.80
2024-05-09T17:25:44.074Z,1.40
2024-05-09T17:28:12.467Z,1.40
2024-05-09T17:30:43.058Z,1.50
2024-05-09T17:33:12.855Z,1.60
2024-05-09T17:35:42.329Z,1.70
2024-05-09T17:38:11.307Z,1.80
2024-05-09T17:40:40.417Z,1.60
2024-05-09T17:43:10.596Z,1.40
2024-05-09T17:45:40.669Z,2.00
2024-05-09T17:48:11.048Z,1.90
2024-05-09T17:50:42.073Z,1.70
2024-05-09T17:53:11.312Z,2.20
2024-05-09T17:55:40.830Z,1.80
2024-05-09T17:58:09.439Z,1.90
2024-05-09T18:00:40.781Z,2.00
2024-05-09T18:03:12.622Z,1.80
2024-05-09T18:05:43.959Z,1.70
2024-05-09T18:08:13.366Z,1.90
2024-05-09T18:10:42.775Z,1.90
2024-05-09T18:13:12.380Z,1.70
2024-05-09T18:15:41.608Z,1.90
2024-05-09T18:18:11.960Z,1.60
2024-05-09T18:20:44.516Z,1.80
2024-05-09T18:23:16.512Z,2.00
2024-05-09T18:25:48.078Z,2.30
2024-05-09T18:28:17.071Z,1.80
2024-05-09T18:30:46.071Z,2.00
2024-05-09T18:33:14.942Z,1.80
2024-05-09T18:35:44.246Z,2.00
2024-05-09T18:38:12.211Z,1.90
2024-05-09T18:40:43.861Z,1.80
2024-05-09T18:43:15.081Z,2.40
2024-05-09T18:45:43.442Z,2.10
2024-05-09T18:48:13.394Z,2.00
2024-05-09T18:50:42.130Z,1.80
2024-05-09T18:53:12.246Z,2.00
2024-05-09T18:55:42.863Z,1.80
2024-05-09T18:58:11.142Z,2.10
2024-05-09T19:00:41.539Z,2.00
2024-05-09T19:03:13.984Z,1.70
2024-05-09T19:05:45.247Z,1.80
2024-05-09T19:08:15.168Z,1.90
2024-05-09T19:10:47.304Z,1.90
2024-05-09T19:13:16.398Z,1.90
2024-05-09T19:15:45.066Z,2.50
2024-05-09T19:18:14.031Z,2.40
2024-05-09T19:20:43.294Z,2.30
2024-05-09T19:23:12.833Z,2.80
2024-05-09T19:25:41.247Z,2.40
2024-05-09T19:28:09.979Z,2.50
2024-05-09T19:30:41.320Z,2.80
2024-05-09T19:33:13.331Z,2.40
2024-05-09T19:35:43.070Z,2.60
2024-05-09T19:38:12.924Z,2.90
2024-05-09T19:40:41.125Z,2.70
2024-05-09T19:43:10.856Z,2.40
2024-05-09T19:45:39.378Z,3.20
2024-05-09T19:48:08.118Z,2.80
2024-05-09T19:50:41.941Z,2.60
2024-05-09T19:53:14.162Z,2.30
2024-05-09T19:55:42.783Z,3.20
2024-05-09T19:58:13.245Z,2.90
2024-05-09T20:00:44.567Z,3.00
2024-05-09T20:03:14.473Z,3.00
2024-05-09T20:05:45.386Z,4.40
2024-05-09T20:08:14.961Z,3.20
2024-05-09T20:10:43.475Z,3.40
2024-05-09T20:13:12.013Z,4.10
2024-05-09T20:15:40.461Z,3.30
2024-05-09T20:18:08.936Z,3.60
2024-05-09T20:20:41.451Z,3.50
2024-05-09T20:23:13.526Z,3.20
2024-05-09T20:25:42.347Z,3.90
2024-05-09T20:28:11.257Z,3.80
2024-05-09T20:30:40.987Z,3.20
2024-05-09T20:33:10.122Z,3.20
2024-05-09T20:35:40.674Z,4.70
2024-05-09T20:38:09.341Z,3.10
2024-05-09T20:40:39.116Z,4.00
2024-05-09T20:43:09.689Z,4.50
2024-05-09T20:45:39.856Z,6.70
2024-05-09T20:48:08.974Z,5.00
2024-05-09T20:50:41.028Z,5.90
2024-05-09T20:53:13.106Z,5.70
2024-05-09T20:55:45.318Z,5.90
2024-05-09T20:58:14.355Z,4.50
2024-05-09T21:00:45.378Z,4.70
2024-05-09T21:03:16.944Z,5.10
2024-05-09T21:05:49.089Z,4.80
2024-05-09T21:08:18.774Z,5.40
2024-05-09T21:10:46.578Z,5.00
2024-05-09T21:13:14.837Z,5.40
2024-05-09T21:15:44.198Z,6.30
2024-05-09T21:18:12.730Z,6.60
2024-05-09T21:20:41.475Z,5.90
2024-05-09T21:23:09.254Z,6.30
2024-05-09T21:25:37.338Z,8.20
2024-05-09T21:28:05.446Z,7.40
2024-05-09T21:30:41.325Z,8.40
2024-05-09T21:33:13.470Z,8.50
2024-05-09T21:35:44.356Z,9.20
2024-05-09T21:38:15.024Z,9.80
2024-05-09T21:40:44.128Z,9.50
2024-05-09T21:43:12.525Z,8.80
2024-05-09T21:45:40.846Z,8.80
2024-05-09T21:48:09.435Z,8.30
2024-05-09T21:50:41.058Z,8.20
2024-05-09T21:53:11.571Z,8.70
2024-05-09T21:55:41.969Z,6.80
2024-05-09T21:58:14.392Z,7.10
2024-05-09T22:00:45.519Z,6.40
2024-05-09T22:03:14.990Z,5.80
2024-05-09T22:05:44.860Z,6.50
2024-05-09T22:08:13.505Z,4.80
2024-05-09T22:10:42.022Z,5.50
2024-05-09T22:13:10.039Z,5.70
2024-05-09T22:15:40.046Z,5.50
2024-05-09T22:18:11.762Z,5.40
2024-05-09T22:20:45.821Z,5.50
2024-05-09T22:23:15.566Z,5.40
2024-05-09T22:25:44.343Z,5.50
2024-05-09T22:28:15.730Z,5.10
2024-05-09T22:30:45.538Z,4.80
2024-05-09T22:33:14.872Z,5.10
2024-05-09T22:35:43.173Z,5.60
2024-05-09T22:38:11.860Z,5.70
2024-05-09T22:40:47.336Z,5.80
2024-05-09T22:43:23.356Z,5.80
2024-05-09T22:45:55.167Z,5.80
2024-05-09T22:48:24.750Z,6.20
2024-05-09T22:50:53.611Z,5.60
2024-05-09T22:53:24.428Z,5.50
2024-05-09T22:55:53.347Z,6.40
2024-05-09T22:58:23.013Z,5.00
2024-05-09T23:00:51.357Z,4.70
2024-05-09T23:03:22.010Z,3.90
2024-05-09T23:05:53.479Z,4.80
2024-05-09T23:08:22.637Z,4.00
2024-05-09T23:10:50.996Z,4.30
2024-05-09T23:13:19.710Z,3.90
2024-05-09T23:15:48.644Z,4.40
2024-05-09T23:18:16.398Z,3.10
2024-05-09T23:20:44.359Z,3.50
2024-05-09T23:23:12.383Z,3.90
2024-05-09T23:25:42.123Z,3.50
2024-05-09T23:28:13.135Z,3.60
2024-05-09T23:30:42.126Z,3.90
2024-05-09T23:33:12.674Z,3.60
2024-05-09T23:35:43.450Z,4.30
2024-05-09T23:38:13.160Z,4.30
2024-05-09T23:40:42.412Z,3.90
2024-05-09T23:43:12.689Z,4.40
2024-05-09T23:45:42.339Z,3.90
2024-05-09T23:48:12.074Z,3.70
2024-05-09T23:50:40.821Z,3.50
2024-05-09T23:53:10.893Z,3.70
2024-05-09T23:55:39.991Z,4.00
2024-05-09T23:58:09.633Z,3.60
